createdAt,value
2019-01-25T00:01:18.955Z,1.74
2019-01-25T00:03:48.352Z,1.71
2019-01-25T00:06:17.776Z,1.85
2019-01-25T00:08:47.125Z,1.94
2019-01-25T00:11:16.542Z,1.87
2019-01-25T00:13:45.911Z,2.05
2019-01-25T00:16:15.341Z,1.96
2019-01-25T00:18:44.938Z,1.97
2019-01-25T00:21:14.341Z,2.11
2019-01-25T00:23:43.720Z,2.06
2019-01-25T00:26:13.229Z,1.81
2019-01-25T00:28:42.670Z,1.81
2019-01-25T00:31:12.132Z,1.94
2019-01-25T00:33:41.486Z,1.78
2019-01-25T00:36:10.945Z,1.82
2019-01-25T00:38:40.303Z,1.50
2019-01-25T00:41:09.704Z,1.35
2019-01-25T00:43:39.121Z,1.34
2019-01-25T00:46:08.494Z,1.25
2019-01-25T00:48:37.903Z,1.27
2019-01-25T00:51:07.287Z,1.44
2019-01-25T00:53:36.707Z,1.45
2019-01-25T00:56:06.826Z,1.17
2019-01-25T00:58:36.266Z,1.17
2019-01-25T01:01:05.640Z,0.93
2019-01-25T01:03:35.038Z,0.92
2019-01-25T01:06:04.385Z,1.00
2019-01-25T01:08:33.843Z,1.02
2019-01-25T01:11:03.370Z,1.09
2019-01-25T01:13:32.847Z,1.00
2019-01-25T01:16:02.244Z,0.95
2019-01-25T01:18:31.651Z,0.99
2019-01-25T01:21:01.006Z,1.09
2019-01-25T01:23:30.447Z,1.09
2019-01-25T01:25:59.879Z,1.06
2019-01-25T01:28:29.384Z,1.06
2019-01-25T01:30:58.758Z,0.77
2019-01-25T01:33:28.288Z,0.74
2019-01-25T01:35:57.678Z,0.74
2019-01-25T01:38:27.093Z,0.63
2019-01-25T01:40:56.488Z,0.78
2019-01-25T01:43:25.907Z,0.91
2019-01-25T01:45:55.307Z,1.09
2019-01-25T01:48:24.727Z,1.09
2019-01-25T01:50:54.277Z,0.92
2019-01-25T01:53:23.690Z,0.94
2019-01-25T01:55:53.088Z,0.94
2019-01-25T01:58:22.487Z,1.15
2019-01-25T02:00:51.893Z,1.09
2019-01-25T02:03:21.430Z,1.09
2019-01-25T02:05:50.806Z,1.27
2019-01-25T02:08:20.213Z,1.09
2019-01-25T02:10:49.610Z,0.68
2019-01-25T02:13:19.039Z,0.99
2019-01-25T02:15:48.409Z,1.07
2019-01-25T02:18:17.836Z,1.12
2019-01-25T02:20:47.247Z,0.98
2019-01-25T02:23:16.695Z,1.07
2019-01-25T02:25:46.041Z,1.03
2019-01-25T02:28:15.408Z,0.39
2019-01-25T02:30:44.874Z,0.83
2019-01-25T02:33:14.286Z,1.17
2019-01-25T02:35:43.759Z,0.87
2019-01-25T02:38:13.139Z,0.39
2019-01-25T02:40:42.588Z,0.65
2019-01-25T02:43:11.971Z,0.79
2019-01-25T02:45:41.380Z,0.93
2019-01-25T02:48:10.756Z,1.20
2019-01-25T02:50:40.179Z,1.26
2019-01-25T02:53:09.557Z,0.44
2019-01-25T02:55:39.061Z,0.52
2019-01-25T02:58:08.430Z,0.71
2019-01-25T03:00:37.856Z,0.88
2019-01-25T03:03:07.241Z,0.84
2019-01-25T03:05:36.639Z,-0.05
2019-01-25T03:08:06.017Z,0.26
2019-01-25T03:10:35.525Z,-0.23
2019-01-25T03:13:04.906Z,-0.26
2019-01-25T03:15:34.315Z,0.03
2019-01-25T03:18:03.678Z,0.56
2019-01-25T03:20:33.100Z,0.71
2019-01-25T03:23:02.472Z,0.38
2019-01-25T03:25:31.884Z,0.01
2019-01-25T03:28:01.284Z,-0.38
2019-01-25T03:30:30.697Z,-0.47
2019-01-25T03:33:00.092Z,-0.15
2019-01-25T03:35:29.541Z,-0.21
2019-01-25T03:37:58.915Z,-0.63
2019-01-25T03:40:29.054Z,-0.79
2019-01-25T03:42:58.466Z,-0.54
2019-01-25T03:45:28.101Z,-0.06
2019-01-25T03:47:57.474Z,0.39
2019-01-25T03:50:28.845Z,0.23
2019-01-25T03:52:58.237Z,0.46
2019-01-25T03:55:27.667Z,0.80
2019-01-25T03:57:57.043Z,0.07
2019-01-25T04:00:28.407Z,0.08
2019-01-25T04:02:57.773Z,0.66
2019-01-25T04:05:27.239Z,1.17
2019-01-25T04:07:56.647Z,1.26
2019-01-25T04:10:27.463Z,0.56
2019-01-25T04:12:56.905Z,0.20
2019-01-25T04:15:28.515Z,-0.07
2019-01-25T04:17:57.896Z,-0.06
2019-01-25T04:20:27.333Z,0.13
2019-01-25T04:22:56.805Z,0.08
2019-01-25T04:25:26.258Z,-0.22
2019-01-25T04:27:55.649Z,-0.12
2019-01-25T04:30:27.103Z,-0.07
2019-01-25T04:32:56.621Z,0.51
2019-01-25T04:35:26.161Z,0.73
2019-01-25T04:37:55.578Z,0.55
2019-01-25T04:40:24.990Z,0.13
2019-01-25T04:42:54.411Z,0.32
2019-01-25T04:45:23.903Z,0.53
2019-01-25T04:47:53.291Z,0.83
2019-01-25T04:50:24.369Z,1.30
2019-01-25T04:52:54.178Z,1.55
2019-01-25T04:55:30.895Z,1.71
2019-01-25T04:58:17.211Z,1.78
2019-01-25T05:00:46.671Z,1.77
2019-01-25T05:03:16.225Z,1.85
2019-01-25T05:05:45.720Z,1.89
2019-01-25T05:08:19.734Z,1.92
2019-01-25T05:10:49.534Z,2.02
2019-01-25T05:13:18.952Z,2.07
2019-01-25T05:15:48.345Z,1.98
2019-01-25T05:18:17.777Z,1.95
2019-01-25T05:20:47.210Z,1.98
2019-01-25T05:23:16.649Z,2.03
2019-01-25T05:25:46.033Z,1.94
2019-01-25T05:28:19.923Z,1.88
2019-01-25T05:31:03.793Z,1.78
2019-01-25T05:33:33.246Z,1.93
2019-01-25T05:36:02.610Z,1.98
2019-01-25T05:38:32.050Z,1.96
2019-01-25T05:41:01.441Z,1.76
2019-01-25T05:43:41.876Z,1.79
2019-01-25T05:46:11.304Z,1.88
2019-01-25T05:48:40.794Z,1.94
2019-01-25T05:51:13.132Z,1.82
2019-01-25T05:53:52.861Z,1.72
2019-01-25T05:56:22.947Z,1.66
2019-01-25T05:58:52.389Z,1.78
2019-01-25T06:01:21.769Z,1.66
2019-01-25T06:03:51.194Z,1.69
2019-01-25T06:06:20.562Z,1.81
2019-01-25T06:08:49.993Z,1.98
2019-01-25T06:11:19.393Z,2.08
2019-01-25T06:13:48.847Z,2.14
2019-01-25T06:16:18.246Z,2.20
2019-01-25T06:18:47.685Z,2.12
2019-01-25T06:21:17.062Z,2.07
2019-01-25T06:23:46.488Z,2.18
2019-01-25T06:26:15.880Z,2.17
2019-01-25T06:28:48.731Z,2.05
2019-01-25T06:31:20.349Z,2.14
2019-01-25T06:33:49.780Z,2.30
2019-01-25T06:36:19.169Z,2.05
2019-01-25T06:38:48.601Z,2.08
2019-01-25T06:41:18.007Z,2.13
2019-01-25T06:43:47.418Z,2.22
2019-01-25T06:46:16.823Z,2.32
2019-01-25T06:48:46.233Z,2.14
2019-01-25T06:51:15.623Z,2.17
2019-01-25T06:53:45.042Z,2.14
2019-01-25T06:56:14.458Z,1.92
2019-01-25T06:59:01.439Z,1.18
2019-01-25T07:02:04.755Z,0.86
2019-01-25T07:04:34.198Z,1.11
2019-01-25T07:07:05.303Z,0.83
2019-01-25T07:09:34.726Z,0.36
2019-01-25T07:12:04.112Z,0.58
2019-01-25T07:14:33.528Z,0.33
2019-01-25T07:17:02.904Z,0.20
2019-01-25T07:19:32.320Z,0.48
2019-01-25T07:22:01.717Z,-0.01
2019-01-25T07:24:31.116Z,0.20
2019-01-25T07:27:00.519Z,0.87
2019-01-25T07:29:29.930Z,1.26
2019-01-25T07:31:59.330Z,1.48
2019-01-25T07:34:28.780Z,1.16
2019-01-25T07:36:58.323Z,0.69
2019-01-25T07:39:30.260Z,0.35
2019-01-25T07:42:02.230Z,0.75
2019-01-25T07:44:30.852Z,1.26
2019-01-25T07:47:00.236Z,1.52
2019-01-25T07:49:29.858Z,1.76
2019-01-25T07:51:59.453Z,2.07
2019-01-25T07:54:28.929Z,2.28
2019-01-25T07:56:58.360Z,2.29
2019-01-25T07:59:27.726Z,2.39
2019-01-25T08:01:57.228Z,2.31
2019-01-25T08:04:26.621Z,2.52
2019-01-25T08:06:56.048Z,1.86
2019-01-25T08:09:25.736Z,1.83
2019-01-25T08:11:55.757Z,1.58
2019-01-25T08:14:25.226Z,1.31
2019-01-25T08:16:54.704Z,1.38
2019-01-25T08:19:24.181Z,1.19
2019-01-25T08:21:53.738Z,1.15
2019-01-25T08:24:23.157Z,1.31
2019-01-25T08:26:52.589Z,1.54
2019-01-25T08:29:27.858Z,2.09
2019-01-25T08:31:53.333Z,2.14
2019-01-25T08:34:22.964Z,2.17
2019-01-25T08:36:52.510Z,2.40
2019-01-25T08:39:21.984Z,2.33
2019-01-25T08:41:51.481Z,2.25
2019-01-25T08:44:20.890Z,2.18
2019-01-25T08:46:50.300Z,1.76
2019-01-25T08:49:19.728Z,1.91
2019-01-25T08:51:49.232Z,1.80
2019-01-25T08:54:18.606Z,2.00
2019-01-25T08:56:48.265Z,2.05
2019-01-25T08:59:17.672Z,2.34
2019-01-25T09:01:47.049Z,2.46
2019-01-25T09:04:16.563Z,2.80
2019-01-25T09:06:45.930Z,2.35
2019-01-25T09:09:15.413Z,1.26
2019-01-25T09:11:44.749Z,0.71
2019-01-25T09:14:14.179Z,0.80
2019-01-25T09:16:43.664Z,1.07
2019-01-25T09:19:13.109Z,0.67
2019-01-25T09:21:42.529Z,1.35
2019-01-25T09:24:12.045Z,1.38
2019-01-25T09:26:41.453Z,0.67
2019-01-25T09:29:10.859Z,0.64
2019-01-25T09:31:40.217Z,1.33
2019-01-25T09:34:09.646Z,0.93
2019-01-25T09:36:39.067Z,0.72
2019-01-25T09:39:10.075Z,1.18
2019-01-25T09:41:39.663Z,1.00
2019-01-25T09:44:09.124Z,0.65
2019-01-25T09:46:38.536Z,1.17
2019-01-25T09:49:07.958Z,1.74
2019-01-25T09:51:37.357Z,1.73
2019-01-25T09:54:06.758Z,2.25
2019-01-25T09:56:36.186Z,1.92
2019-01-25T09:59:06.114Z,1.99
2019-01-25T10:01:35.481Z,1.43
2019-01-25T10:04:04.906Z,1.10
2019-01-25T10:06:34.300Z,0.81
2019-01-25T10:09:05.327Z,0.76
2019-01-25T10:11:34.747Z,0.82
2019-01-25T10:14:04.309Z,1.07
2019-01-25T10:16:33.700Z,1.63
2019-01-25T10:19:03.181Z,1.32
2019-01-25T10:21:32.613Z,1.22
2019-01-25T10:24:02.028Z,1.26
2019-01-25T10:26:31.524Z,1.61
2019-01-25T10:29:00.976Z,1.85
2019-01-25T10:31:30.363Z,1.79
2019-01-25T10:33:59.809Z,1.45
2019-01-25T10:36:29.193Z,1.61
2019-01-25T10:38:58.625Z,1.42
2019-01-25T10:41:28.005Z,2.10
2019-01-25T10:43:57.425Z,2.71
2019-01-25T10:46:26.846Z,2.91
2019-01-25T10:48:56.219Z,2.96
2019-01-25T10:51:25.682Z,3.28
2019-01-25T10:53:55.122Z,3.16
2019-01-25T10:56:24.567Z,3.06
2019-01-25T10:58:53.929Z,2.50
2019-01-25T11:01:23.375Z,2.30
2019-01-25T11:03:52.744Z,2.91
2019-01-25T11:06:22.651Z,2.85
2019-01-25T11:08:52.986Z,3.32
2019-01-25T11:11:22.493Z,3.40
2019-01-25T11:13:51.882Z,3.57
2019-01-25T11:16:21.321Z,2.82
2019-01-25T11:18:50.742Z,2.50
2019-01-25T11:21:20.198Z,2.17
2019-01-25T11:23:49.579Z,2.42
2019-01-25T11:26:19.026Z,2.17
2019-01-25T11:28:48.476Z,1.86
2019-01-25T11:31:17.910Z,2.04
2019-01-25T11:33:47.566Z,2.64
2019-01-25T11:36:17.297Z,2.87
2019-01-25T11:38:46.848Z,2.18
2019-01-25T11:41:16.617Z,1.96
2019-01-25T11:43:46.396Z,1.91
2019-01-25T11:46:16.158Z,2.24
2019-01-25T11:48:45.811Z,2.03
2019-01-25T11:51:15.558Z,2.46
2019-01-25T11:53:45.314Z,2.47
2019-01-25T11:56:15.389Z,3.12
2019-01-25T11:58:45.164Z,3.53
2019-01-25T12:01:14.910Z,4.35
2019-01-25T12:03:44.590Z,4.68
2019-01-25T12:06:14.438Z,5.67
2019-01-25T12:08:44.096Z,6.86
2019-01-25T12:11:13.950Z,7.00
2019-01-25T12:13:43.681Z,7.74
2019-01-25T12:16:13.447Z,7.48
2019-01-25T12:18:43.193Z,5.37
2019-01-25T12:21:12.852Z,4.38
2019-01-25T12:23:42.544Z,4.76
2019-01-25T12:26:12.139Z,5.30
2019-01-25T12:28:41.764Z,5.87
2019-01-25T12:31:11.352Z,6.43
2019-01-25T12:33:40.967Z,6.36
2019-01-25T12:36:10.578Z,5.19
2019-01-25T12:38:40.166Z,4.36
2019-01-25T12:41:09.752Z,3.82
2019-01-25T12:43:39.435Z,3.42
2019-01-25T12:46:09.069Z,3.33
2019-01-25T12:48:38.727Z,3.27
2019-01-25T12:51:16.599Z,3.28
2019-01-25T12:53:46.246Z,3.26
2019-01-25T12:56:15.899Z,3.26
2019-01-25T12:58:45.670Z,3.46
2019-01-25T13:01:15.419Z,3.85
2019-01-25T13:03:45.086Z,4.24
2019-01-25T13:06:14.755Z,4.72
2019-01-25T13:08:44.489Z,4.99
2019-01-25T13:11:14.158Z,5.36
2019-01-25T13:13:43.671Z,5.64
2019-01-25T13:16:13.178Z,5.90
2019-01-25T13:18:42.959Z,5.80
2019-01-25T13:21:12.679Z,5.81
2019-01-25T13:23:42.362Z,5.84
2019-01-25T13:26:12.124Z,5.91
2019-01-25T13:28:41.948Z,5.99
2019-01-25T13:31:11.738Z,6.42
2019-01-25T13:33:41.491Z,6.92
2019-01-25T13:36:12.295Z,7.03
2019-01-25T13:38:41.913Z,6.92
2019-01-25T13:41:11.496Z,6.73
2019-01-25T13:43:41.162Z,5.98
2019-01-25T13:46:11.733Z,5.79
2019-01-25T13:48:41.380Z,5.70
2019-01-25T13:51:10.953Z,6.06
2019-01-25T13:53:40.635Z,6.54
2019-01-25T13:56:10.417Z,6.83
2019-01-25T13:58:40.091Z,6.68
2019-01-25T14:01:09.663Z,6.68
2019-01-25T14:03:39.296Z,6.50
2019-01-25T14:06:08.777Z,5.83
2019-01-25T14:08:38.400Z,5.31
2019-01-25T14:11:08.905Z,4.97
2019-01-25T14:13:46.716Z,4.96
2019-01-25T14:16:12.712Z,5.24
2019-01-25T14:18:44.870Z,5.51
2019-01-25T14:21:13.887Z,5.28
2019-01-25T14:23:43.542Z,5.24
2019-01-25T14:26:13.254Z,5.30
2019-01-25T14:28:42.848Z,5.46
2019-01-25T14:31:12.518Z,5.35
2019-01-25T14:33:42.371Z,5.26
2019-01-25T14:36:12.011Z,5.27
2019-01-25T14:38:41.683Z,5.18
2019-01-25T14:41:11.246Z,5.06
2019-01-25T14:43:40.933Z,5.15
2019-01-25T14:46:10.578Z,5.11
2019-01-25T14:48:40.192Z,5.13
2019-01-25T14:51:09.879Z,5.07
2019-01-25T14:53:39.639Z,5.21
2019-01-25T14:56:09.364Z,5.06
2019-01-25T14:58:39.009Z,5.19
2019-01-25T15:01:08.728Z,5.29
2019-01-25T15:03:38.418Z,5.27
2019-01-25T15:06:08.114Z,5.28
2019-01-25T15:08:37.785Z,5.22
2019-01-25T15:11:07.310Z,5.14
2019-01-25T15:13:36.945Z,5.10
2019-01-25T15:16:06.624Z,4.99
2019-01-25T15:18:36.539Z,4.92
2019-01-25T15:21:06.361Z,5.03
2019-01-25T15:23:36.111Z,4.95
2019-01-25T15:26:05.767Z,4.66
2019-01-25T15:28:35.863Z,4.62
2019-01-25T15:31:05.596Z,4.81
2019-01-25T15:33:35.269Z,4.96
2019-01-25T15:36:04.921Z,5.06
2019-01-25T15:38:34.586Z,5.22
2019-01-25T15:41:04.230Z,5.27
2019-01-25T15:43:33.904Z,5.27
2019-01-25T15:46:03.680Z,5.22
2019-01-25T15:48:33.319Z,5.20
2019-01-25T15:51:02.992Z,4.93
2019-01-25T15:53:32.629Z,4.58
2019-01-25T15:56:02.370Z,4.37
2019-01-25T15:58:32.036Z,4.41
2019-01-25T16:01:01.520Z,4.36
2019-01-25T16:03:31.165Z,4.52
2019-01-25T16:06:00.731Z,4.62
2019-01-25T16:08:30.357Z,4.47
2019-01-25T16:10:59.853Z,4.44
2019-01-25T16:13:29.505Z,4.45
2019-01-25T16:15:59.228Z,4.46
2019-01-25T16:18:29.109Z,4.45
2019-01-25T16:20:58.642Z,4.53
2019-01-25T16:23:28.457Z,4.38
2019-01-25T16:25:58.106Z,4.30
2019-01-25T16:28:27.872Z,4.10
2019-01-25T16:30:57.524Z,4.22
2019-01-25T16:33:27.185Z,4.08
2019-01-25T16:35:56.914Z,4.36
2019-01-25T16:38:26.794Z,4.41
2019-01-25T16:40:56.490Z,4.48
2019-01-25T16:43:26.228Z,4.47
2019-01-25T16:45:56.038Z,4.31
2019-01-25T16:48:25.723Z,4.16
2019-01-25T16:50:55.580Z,4.06
2019-01-25T16:53:25.320Z,4.02
2019-01-25T16:55:54.778Z,4.00
2019-01-25T16:58:24.438Z,4.12
2019-01-25T17:00:54.091Z,4.17
2019-01-25T17:03:23.713Z,4.41
2019-01-25T17:05:53.418Z,4.60
2019-01-25T17:08:22.939Z,4.75
2019-01-25T17:10:52.585Z,4.63
2019-01-25T17:13:23.894Z,4.19
2019-01-25T17:15:55.242Z,4.17
2019-01-25T17:18:25.019Z,4.34
2019-01-25T17:20:54.794Z,4.30
2019-01-25T17:23:24.425Z,4.17
2019-01-25T17:25:54.093Z,4.25
2019-01-25T17:28:23.628Z,4.24
2019-01-25T17:30:53.168Z,4.21
2019-01-25T17:33:22.863Z,4.22
2019-01-25T17:35:52.704Z,4.18
2019-01-25T17:38:22.360Z,4.26
2019-01-25T17:40:52.129Z,4.31
2019-01-25T17:43:21.818Z,4.45
2019-01-25T17:45:51.500Z,4.50
2019-01-25T17:48:21.091Z,4.39
2019-01-25T17:50:50.947Z,4.55
2019-01-25T17:53:20.595Z,4.50
2019-01-25T17:55:50.170Z,4.62
2019-01-25T17:58:19.723Z,4.19
2019-01-25T18:00:54.846Z,4.39
2019-01-25T18:03:24.770Z,4.66
2019-01-25T18:05:54.609Z,4.19
2019-01-25T18:08:24.483Z,4.37
2019-01-25T18:10:54.371Z,4.25
2019-01-25T18:13:24.195Z,4.22
2019-01-25T18:15:54.063Z,4.24
2019-01-25T18:18:28.468Z,4.05
2019-01-25T18:20:58.133Z,4.25
2019-01-25T18:23:27.792Z,4.19
2019-01-25T18:26:01.240Z,4.09
2019-01-25T18:28:34.966Z,3.99
2019-01-25T18:31:25.440Z,4.15
2019-01-25T18:33:55.378Z,4.34
2019-01-25T18:36:25.072Z,4.04
2019-01-25T18:38:56.944Z,3.93
2019-01-25T18:41:26.625Z,3.94
2019-01-25T18:43:56.375Z,3.88
2019-01-25T18:46:26.031Z,4.06
2019-01-25T18:48:55.519Z,4.24
2019-01-25T18:51:25.135Z,3.93
2019-01-25T18:53:54.840Z,4.11
2019-01-25T18:56:26.251Z,4.06
2019-01-25T18:58:55.900Z,4.30
2019-01-25T19:01:25.579Z,4.25
2019-01-25T19:03:55.206Z,4.04
2019-01-25T19:06:24.856Z,4.17
2019-01-25T19:08:54.615Z,4.38
2019-01-25T19:11:24.187Z,4.47
2019-01-25T19:13:53.816Z,4.27
2019-01-25T19:16:23.547Z,4.17
2019-01-25T19:18:53.228Z,3.93
2019-01-25T19:21:22.963Z,3.95
2019-01-25T19:23:52.617Z,3.99
2019-01-25T19:26:22.281Z,3.93
2019-01-25T19:28:52.096Z,4.12
2019-01-25T19:31:21.695Z,4.23
2019-01-25T19:33:51.300Z,3.80
2019-01-25T19:36:20.945Z,3.67
2019-01-25T19:38:50.565Z,3.99
2019-01-25T19:41:21.003Z,3.84
2019-01-25T19:43:50.714Z,3.84
2019-01-25T19:46:20.363Z,3.72
2019-01-25T19:48:50.208Z,3.42
2019-01-25T19:51:19.795Z,3.34
2019-01-25T19:53:49.553Z,3.40
2019-01-25T19:56:19.225Z,3.10
2019-01-25T19:58:48.867Z,3.29
2019-01-25T20:01:18.541Z,2.82
2019-01-25T20:03:48.307Z,3.03
2019-01-25T20:06:18.025Z,2.99
2019-01-25T20:08:47.714Z,3.00
2019-01-25T20:11:17.404Z,2.99
2019-01-25T20:13:47.025Z,2.85
2019-01-25T20:16:16.566Z,3.07
2019-01-25T20:18:46.347Z,2.84
2019-01-25T20:21:15.912Z,3.07
2019-01-25T20:23:45.693Z,3.12
2019-01-25T20:26:15.366Z,3.10
2019-01-25T20:28:45.011Z,3.05
2019-01-25T20:31:14.771Z,3.24
2019-01-25T20:33:45.802Z,3.15
2019-01-25T20:36:15.718Z,3.12
2019-01-25T20:38:45.333Z,3.24
2019-01-25T20:41:14.911Z,3.11
2019-01-25T20:43:44.580Z,2.96
2019-01-25T20:46:13.977Z,2.99
2019-01-25T20:48:43.709Z,3.03
2019-01-25T20:51:13.348Z,3.42
2019-01-25T20:53:43.132Z,3.11
2019-01-25T20:56:12.751Z,3.03
2019-01-25T20:58:42.324Z,3.10
2019-01-25T21:01:11.964Z,2.99
2019-01-25T21:03:41.631Z,3.11
2019-01-25T21:06:11.298Z,3.04
2019-01-25T21:08:40.965Z,3.16
2019-01-25T21:11:10.652Z,3.11
2019-01-25T21:13:40.384Z,3.07
2019-01-25T21:16:10.055Z,3.02
2019-01-25T21:18:39.701Z,3.09
2019-01-25T21:21:09.440Z,3.44
2019-01-25T21:23:39.093Z,3.26
2019-01-25T21:26:08.719Z,3.22
2019-01-25T21:28:38.388Z,3.36
2019-01-25T21:31:08.077Z,3.75
2019-01-25T21:33:37.930Z,3.60
2019-01-25T21:36:07.670Z,3.80
2019-01-25T21:38:37.224Z,3.92
2019-01-25T21:41:07.429Z,3.92
2019-01-25T21:43:37.166Z,3.86
2019-01-25T21:46:06.842Z,4.12
2019-01-25T21:48:36.490Z,4.21
2019-01-25T21:51:06.306Z,4.30
2019-01-25T21:53:35.951Z,4.36
2019-01-25T21:56:05.556Z,4.20
2019-01-25T21:58:35.437Z,3.40
2019-01-25T22:01:05.113Z,3.54
2019-01-25T22:03:34.619Z,3.97
2019-01-25T22:06:04.455Z,3.94
2019-01-25T22:08:34.174Z,3.96
2019-01-25T22:11:05.719Z,4.23
2019-01-25T22:13:35.349Z,4.50
2019-01-25T22:16:05.105Z,4.29
2019-01-25T22:18:34.666Z,4.43
2019-01-25T22:21:04.288Z,4.24
2019-01-25T22:23:33.856Z,3.69
2019-01-25T22:26:03.419Z,3.50
2019-01-25T22:28:33.146Z,3.33
2019-01-25T22:31:02.765Z,2.98
2019-01-25T22:33:32.508Z,3.11
2019-01-25T22:36:02.207Z,3.20
2019-01-25T22:38:31.827Z,3.46
2019-01-25T22:41:01.503Z,3.23
2019-01-25T22:43:31.157Z,3.22
2019-01-25T22:46:00.749Z,3.54
2019-01-25T22:48:30.383Z,3.94
2019-01-25T22:51:00.056Z,4.05
2019-01-25T22:53:29.833Z,4.34
2019-01-25T22:55:59.216Z,4.62
2019-01-25T22:58:28.623Z,4.59
2019-01-25T23:01:17.229Z,4.68
2019-01-25T23:04:45.996Z,4.71
2019-01-25T23:07:17.414Z,4.87
2019-01-25T23:10:00.971Z,4.72
2019-01-25T23:12:30.648Z,3.66
2019-01-25T23:15:00.308Z,3.41
2019-01-25T23:17:29.725Z,3.30
2019-01-25T23:19:59.114Z,3.30
2019-01-25T23:22:28.546Z,3.35
2019-01-25T23:24:57.918Z,3.74
2019-01-25T23:27:27.270Z,3.82
2019-01-25T23:29:56.678Z,3.87
2019-01-25T23:32:26.355Z,3.93
2019-01-25T23:34:55.975Z,3.93
2019-01-25T23:37:25.384Z,3.76
2019-01-25T23:39:56.266Z,3.89
2019-01-25T23:42:25.679Z,4.21
2019-01-25T23:44:55.083Z,4.37
2019-01-25T23:47:24.478Z,4.18
2019-01-25T23:49:53.914Z,3.69
2019-01-25T23:52:23.269Z,3.93
2019-01-25T23:54:52.796Z,4.02
2019-01-25T23:57:22.283Z,3.99
2019-01-25T23:59:51.702Z,4.10
